Time;durP1;ratioP1;P1;durP2;ratioP2;P2;SDS_P1;SDS_P2;PMS_P1;PMS_P2;Temp;Humidity;BMP_temperature;BMP_pressure;BME280_temperature;BME280_humidity;BME280_pressure;Samples;Min_cycle;Max_cycle;Signal;HPM_P1;HPM_P2
2022/06/26 00:00:22;;;;;;;1.70;1.60;;;26.40;70.50;;;;;;5016980;28;20530;-84
2022/06/26 00:02:49;;;;;;;1.57;1.47;;;26.40;70.40;;;;;;5016816;28;20439;-85
2022/06/26 00:05:15;;;;;;;1.87;1.77;;;26.40;70.50;;;;;;5016876;28;20431;-85
2022/06/26 00:07:42;;;;;;;1.50;1.40;;;26.30;70.30;;;;;;5016711;28;20538;-85
2022/06/26 00:10:09;;;;;;;1.70;1.60;;;26.30;70.40;;;;;;5016597;28;20440;-85
2022/06/26 00:12:38;;;;;;;1.50;1.40;;;26.40;70.40;;;;;;5016583;28;20550;-85
2022/06/26 00:15:05;;;;;;;1.37;1.27;;;26.40;70.40;;;;;;5016642;28;20435;-85
2022/06/26 00:17:32;;;;;;;1.43;1.33;;;26.40;70.30;;;;;;5016665;28;20522;-85
2022/06/26 00:19:59;;;;;;;1.70;1.60;;;26.40;70.30;;;;;;5016544;28;20475;-84
2022/06/26 00:22:26;;;;;;;1.67;1.50;;;26.40;70.30;;;;;;5016429;28;20530;-85
2022/06/26 00:24:53;;;;;;;1.70;1.60;;;26.40;70.20;;;;;;5016522;28;20446;-84
2022/06/26 00:27:20;;;;;;;1.70;1.60;;;26.30;70.00;;;;;;5016300;28;20471;-85
2022/06/26 00:29:48;;;;;;;2.23;1.80;;;26.40;70.00;;;;;;5016410;28;20439;-84
2022/06/26 00:32:15;;;;;;;1.90;1.80;;;26.40;69.90;;;;;;5016305;28;20873;-84
2022/06/26 00:34:42;;;;;;;1.53;1.43;;;26.40;69.90;;;;;;5016250;28;20476;-85
2022/06/26 00:37:09;;;;;;;1.33;1.23;;;26.30;69.70;;;;;;5015961;28;20527;-85
2022/06/26 00:39:36;;;;;;;1.50;1.40;;;26.40;69.80;;;;;;5016247;28;20854;-85
2022/06/26 00:42:03;;;;;;;2.13;2.03;;;26.40;69.90;;;;;;5016110;28;20963;-84
2022/06/26 00:44:31;;;;;;;1.67;1.57;;;26.40;70.00;;;;;;5015949;28;20498;-84
2022/06/26 00:46:59;;;;;;;1.87;1.77;;;26.40;70.00;;;;;;5016082;28;20534;-84
2022/06/26 00:49:26;;;;;;;2.63;1.87;;;26.30;69.90;;;;;;5016055;28;20534;-84
2022/06/26 00:51:56;;;;;;;1.40;1.30;;;26.40;69.90;;;;;;5015911;28;20450;-85
2022/06/26 00:54:26;;;;;;;1.87;1.77;;;26.40;69.90;;;;;;5015873;28;20447;-85
2022/06/26 00:56:55;;;;;;;1.50;1.40;;;26.40;69.90;;;;;;5016038;28;20447;-84
2022/06/26 00:59:24;;;;;;;1.60;1.50;;;26.40;69.90;;;;;;5015881;28;21045;-85
2022/06/26 01:01:51;;;;;;;1.77;1.57;;;26.40;69.90;;;;;;5015842;28;20442;-85
2022/06/26 01:04:19;;;;;;;1.63;1.53;;;26.40;70.00;;;;;;5015700;28;20546;-84
2022/06/26 01:06:46;;;;;;;1.57;1.47;;;26.40;69.90;;;;;;5015595;28;20467;-85
2022/06/26 01:09:13;;;;;;;1.63;1.53;;;26.40;69.80;;;;;;5015682;28;20534;-84
2022/06/26 01:11:42;;;;;;;1.77;1.67;;;26.40;70.00;;;;;;5015319;28;20506;-85
2022/06/26 01:14:10;;;;;;;1.83;1.73;;;26.40;70.00;;;;;;5015729;28;20856;-85
2022/06/26 01:16:38;;;;;;;1.80;1.70;;;26.40;70.10;;;;;;5015550;28;20442;-84
2022/06/26 01:19:06;;;;;;;1.73;1.63;;;26.40;70.20;;;;;;5015499;28;20487;-84
2022/06/26 01:21:35;;;;;;;1.80;1.70;;;26.40;70.40;;;;;;5015313;28;20484;-84
2022/06/26 01:24:05;;;;;;;1.50;1.40;;;26.40;70.10;;;;;;5015454;28;20467;-85
2022/06/26 01:26:32;;;;;;;2.03;1.40;;;26.40;70.00;;;;;;5014904;28;21332;-84
2022/06/26 01:28:59;;;;;;;1.37;1.27;;;26.40;70.80;;;;;;5015396;28;20522;-85
2022/06/26 01:31:26;;;;;;;1.60;1.50;;;26.40;70.00;;;;;;5015377;28;20803;-84
2022/06/26 01:33:53;;;;;;;1.43;1.33;;;26.40;70.00;;;;;;5015155;28;20526;-85
2022/06/26 01:36:20;;;;;;;1.50;1.40;;;26.30;69.90;;;;;;5015055;28;20474;-93
2022/06/26 01:38:47;;;;;;;1.60;1.50;;;26.40;70.00;;;;;;5014996;28;20840;-85
2022/06/26 01:41:15;;;;;;;1.50;1.40;;;26.40;70.00;;;;;;5014891;28;20526;-84
2022/06/26 01:43:42;;;;;;;1.30;1.20;;;26.40;70.10;;;;;;5014924;28;20457;-84
2022/06/26 01:46:10;;;;;;;1.60;1.50;;;26.40;70.00;;;;;;5014875;28;20448;-84
2022/06/26 01:48:40;;;;;;;1.60;1.50;;;26.40;70.10;;;;;;5014451;28;20867;-85
2022/06/26 01:51:07;;;;;;;1.50;1.40;;;26.40;70.10;;;;;;5014966;28;20539;-84
2022/06/26 01:53:35;;;;;;;1.50;1.40;;;26.40;70.10;;;;;;5014803;28;20848;-85
2022/06/26 01:56:02;;;;;;;1.43;1.33;;;26.40;70.10;;;;;;5014154;28;20945;-85
2022/06/26 01:58:30;;;;;;;1.77;1.67;;;26.40;70.00;;;;;;5014855;28;20562;-85
2022/06/26 02:00:57;;;;;;;1.73;1.50;;;26.40;70.00;;;;;;5014829;28;20467;-84
2022/06/26 02:03:24;;;;;;;1.50;1.40;;;26.40;70.10;;;;;;5014659;28;20531;-85
2022/06/26 02:05:51;;;;;;;1.30;1.20;;;26.40;70.10;;;;;;5014637;28;20436;-84
2022/06/26 02:08:18;;;;;;;1.70;1.60;;;26.40;70.10;;;;;;5014653;28;20439;-84
2022/06/26 02:13:37;;;;;;;1.70;1.60;;;26.40;70.10;;;;;;5014653;28;20447;-84
2022/06/26 02:16:06;;;;;;;1.40;1.30;;;26.40;70.20;;;;;;5014307;28;20486;-85
2022/06/26 02:18:33;;;;;;;2.37;1.90;;;26.40;70.10;;;;;;5014524;28;20493;-84
2022/06/26 02:21:00;;;;;;;1.50;1.40;;;26.40;70.00;;;;;;5014368;28;20796;-85
2022/06/26 02:23:27;;;;;;;1.60;1.50;;;26.40;70.10;;;;;;5014202;28;20536;-84
2022/06/26 02:25:54;;;;;;;1.37;1.27;;;26.40;70.10;;;;;;5014333;28;20467;-84
2022/06/26 02:28:21;;;;;;;1.50;1.40;;;26.40;70.20;;;;;;5014099;28;20481;-85
2022/06/26 02:30:50;;;;;;;1.40;1.30;;;26.40;70.10;;;;;;5014066;28;20519;-84
2022/06/26 02:33:19;;;;;;;1.43;1.33;;;26.40;70.20;;;;;;5014195;28;20447;-84
2022/06/26 02:35:47;;;;;;;1.67;1.57;;;26.40;70.10;;;;;;5014315;28;20444;-85
2022/06/26 02:38:15;;;;;;;1.60;1.40;;;26.40;70.20;;;;;;5013872;28;20480;-84
2022/06/26 02:40:43;;;;;;;1.40;1.30;;;26.40;70.20;;;;;;5013864;28;20483;-85
2022/06/26 02:43:10;;;;;;;2.00;1.90;;;26.40;70.20;;;;;;5013846;28;20463;-85
2022/06/26 02:45:37;;;;;;;1.50;1.40;;;26.40;70.10;;;;;;5013873;28;20475;-84
2022/06/26 02:48:06;;;;;;;1.40;1.30;;;26.40;70.20;;;;;;5013580;28;20526;-84
2022/06/26 02:50:33;;;;;;;1.50;1.40;;;26.40;70.10;;;;;;5013922;28;20470;-84
2022/06/26 02:52:59;;;;;;;1.40;1.30;;;26.40;70.10;;;;;;5013870;28;20440;-84
2022/06/26 02:55:26;;;;;;;1.43;1.33;;;26.40;70.20;;;;;;5013710;28;20444;-84
2022/06/26 02:57:53;;;;;;;1.43;1.33;;;26.40;70.20;;;;;;5013721;28;20486;-85
2022/06/26 03:00:20;;;;;;;1.43;1.33;;;26.40;70.30;;;;;;5013807;28;20447;-84
2022/06/26 03:02:47;;;;;;;1.60;1.50;;;26.40;70.30;;;;;;5013964;28;20878;-85
2022/06/26 03:05:15;;;;;;;1.30;1.20;;;26.40;70.20;;;;;;5013796;28;20446;-84
2022/06/26 03:07:42;;;;;;;1.37;1.27;;;26.40;70.30;;;;;;4995373;28;21001;-84
2022/06/26 03:10:09;;;;;;;1.43;1.33;;;26.40;70.20;;;;;;5013560;28;20535;-85
2022/06/26 03:12:43;;;;;;;1.40;1.30;;;26.40;70.20;;;;;;5013631;28;20872;-84
2022/06/26 03:15:10;;;;;;;1.60;1.50;;;26.40;70.30;;;;;;5013548;28;20446;-84
2022/06/26 03:17:37;;;;;;;1.47;1.37;;;26.40;70.30;;;;;;5013427;28;20440;-85
2022/06/26 03:20:05;;;;;;;1.20;1.10;;;26.40;71.20;;;;;;5013375;28;20578;-84
2022/06/26 03:22:34;;;;;;;1.33;1.23;;;26.40;70.30;;;;;;5013492;28;20799;-85
2022/06/26 03:25:00;;;;;;;1.40;1.30;;;26.40;70.30;;;;;;5013381;28;20551;-84
2022/06/26 03:27:27;;;;;;;1.50;1.40;;;26.40;70.30;;;;;;5013225;28;20558;-92
2022/06/26 03:29:54;;;;;;;1.27;1.17;;;26.40;71.10;;;;;;5013221;28;20957;-84
2022/06/26 03:32:21;;;;;;;1.43;1.33;;;26.40;70.30;;;;;;5013431;28;20531;-85
2022/06/26 03:34:48;;;;;;;1.40;1.30;;;26.40;70.40;;;;;;5013361;28;20455;-84
2022/06/26 03:37:15;;;;;;;1.33;1.23;;;26.40;70.40;;;;;;5013263;28;20534;-85
2022/06/26 03:39:43;;;;;;;1.50;1.40;;;26.40;70.40;;;;;;5013258;28;20574;-84
2022/06/26 03:42:10;;;;;;;1.50;1.40;;;26.40;70.50;;;;;;5013043;28;20554;-85
2022/06/26 03:44:37;;;;;;;1.60;1.50;;;26.40;70.40;;;;;;5013218;28;21015;-85
2022/06/26 03:47:05;;;;;;;1.60;1.50;;;26.40;70.40;;;;;;5013053;28;20950;-84
2022/06/26 03:49:32;;;;;;;1.30;1.20;;;26.40;70.50;;;;;;5013221;28;20522;-85
2022/06/26 03:51:59;;;;;;;1.50;1.23;;;26.40;70.50;;;;;;5013013;28;21009;-85
2022/06/26 03:54:26;;;;;;;1.40;1.30;;;26.40;70.50;;;;;;5013013;28;20455;-84
2022/06/26 03:56:55;;;;;;;1.40;1.30;;;26.40;70.50;;;;;;5013097;28;20506;-85
2022/06/26 03:59:21;;;;;;;1.20;1.10;;;26.40;70.40;;;;;;5013068;28;20514;-93
2022/06/26 04:01:48;;;;;;;1.40;1.30;;;26.40;70.40;;;;;;5013390;28;20473;-85
2022/06/26 04:04:15;;;;;;;1.47;1.37;;;26.40;70.50;;;;;;5013053;28;20444;-85
2022/06/26 04:06:42;;;;;;;1.63;1.53;;;26.40;70.60;;;;;;5013019;28;20491;-84
2022/06/26 04:09:09;;;;;;;1.50;1.40;;;26.40;70.60;;;;;;5012776;28;20534;-85
2022/06/26 04:11:36;;;;;;;1.50;1.40;;;26.40;70.60;;;;;;5012983;28;20478;-84
2022/06/26 04:14:04;;;;;;;1.50;1.40;;;26.40;70.60;;;;;;5012862;28;20519;-85
2022/06/26 04:16:31;;;;;;;1.50;1.40;;;26.40;71.50;;;;;;5012733;28;20539;-85
2022/06/26 04:18:58;;;;;;;1.50;1.40;;;26.40;70.60;;;;;;5013612;28;20575;-85
2022/06/26 04:21:25;;;;;;;1.20;1.10;;;26.40;70.60;;;;;;5016510;28;20777;-84
2022/06/26 04:23:52;;;;;;;1.60;1.50;;;26.30;70.40;;;;;;5016447;28;20449;-85
2022/06/26 04:26:18;;;;;;;1.43;1.33;;;26.40;70.60;;;;;;5016192;28;21009;-84
2022/06/26 04:28:45;;;;;;;1.67;1.57;;;26.40;70.50;;;;;;5016473;28;20483;-85
2022/06/26 04:31:14;;;;;;;1.40;1.30;;;26.40;70.70;;;;;;5016286;28;20458;-84
2022/06/26 04:33:41;;;;;;;1.30;1.20;;;26.40;70.70;;;;;;5016522;28;20487;-85
2022/06/26 04:36:08;;;;;;;1.33;1.23;;;26.40;70.70;;;;;;5016167;28;20447;-84
2022/06/26 04:38:35;;;;;;;1.37;1.27;;;26.40;70.60;;;;;;5016219;28;20447;-84
2022/06/26 04:41:31;;;;;;;1.50;1.40;;;26.40;70.70;;;;;;5016083;28;20439;-85
2022/06/26 04:43:49;;;;;;;1.33;1.23;;;26.40;70.70;;;;;;5015919;28;20435;-85
2022/06/26 04:46:17;;;;;;;2.03;1.40;;;26.30;70.60;;;;;;5015948;28;20531;-85
2022/06/26 04:48:44;;;;;;;1.50;1.40;;;26.40;70.80;;;;;;5016438;28;20534;-85
2022/06/26 04:51:11;;;;;;;1.30;1.20;;;26.40;70.70;;;;;;5015979;28;20478;-84
2022/06/26 04:53:38;;;;;;;1.30;1.20;;;26.40;70.80;;;;;;5015998;28;20439;-85
2022/06/26 04:56:05;;;;;;;1.37;1.27;;;26.30;70.60;;;;;;5016074;28;20435;-93
2022/06/26 04:58:32;;;;;;;1.30;1.20;;;26.30;70.60;;;;;;5015974;28;20548;-84
2022/06/26 05:00:59;;;;;;;1.40;1.30;;;26.40;70.70;;;;;;5015851;28;20444;-84
2022/06/26 05:03:27;;;;;;;1.30;1.20;;;26.40;70.70;;;;;;5015733;28;20436;-85
2022/06/26 05:05:54;;;;;;;1.50;1.40;;;26.40;70.80;;;;;;5015842;28;20539;-84
2022/06/26 05:08:21;;;;;;;1.50;1.30;;;26.30;70.60;;;;;;5015822;28;20439;-84
2022/06/26 05:10:48;;;;;;;1.20;1.10;;;26.40;70.70;;;;;;5015710;28;20446;-84
2022/06/26 05:13:15;;;;;;;1.03;0.93;;;26.40;70.70;;;;;;5015479;28;20547;-85
2022/06/26 05:15:42;;;;;;;1.40;1.30;;;26.30;70.60;;;;;;5015416;28;20530;-84
2022/06/26 05:18:09;;;;;;;1.40;1.30;;;26.40;70.70;;;;;;5015721;28;20522;-84
2022/06/26 05:20:38;;;;;;;1.10;1.00;;;26.40;70.70;;;;;;5015364;28;20574;-84
2022/06/26 05:23:07;;;;;;;1.30;1.20;;;26.40;70.80;;;;;;5015412;28;20444;-84
2022/06/26 05:25:34;;;;;;;1.20;1.10;;;26.40;70.60;;;;;;5015589;28;20931;-85
2022/06/26 05:28:01;;;;;;;1.40;1.30;;;26.40;70.70;;;;;;5015096;28;20475;-84
2022/06/26 05:30:28;;;;;;;1.37;1.27;;;26.40;70.70;;;;;;5014431;28;20530;-84
2022/06/26 05:32:55;;;;;;;1.20;1.10;;;26.40;70.80;;;;;;5015166;28;20522;-85
2022/06/26 05:35:22;;;;;;;1.40;1.20;;;26.30;70.60;;;;;;5015117;28;20457;-85
2022/06/26 05:37:50;;;;;;;1.20;1.10;;;26.40;70.80;;;;;;5015039;28;20998;-84
2022/06/26 05:40:17;;;;;;;1.50;1.40;;;26.40;70.80;;;;;;5014999;28;20850;-84
2022/06/26 05:42:44;;;;;;;1.47;1.37;;;26.30;70.70;;;;;;5014927;28;20550;-84
2022/06/26 05:45:12;;;;;;;1.40;1.30;;;26.40;70.80;;;;;;5015188;28;20522;-84
2022/06/26 05:47:38;;;;;;;1.27;1.17;;;26.40;70.70;;;;;;5014808;28;20448;-84
2022/06/26 05:50:06;;;;;;;1.40;1.30;;;26.40;70.70;;;;;;5014862;28;20539;-85
2022/06/26 05:52:34;;;;;;;1.40;1.30;;;26.40;70.70;;;;;;5014818;28;20451;-84
2022/06/26 05:55:02;;;;;;;1.20;1.10;;;26.40;71.60;;;;;;5014858;28;20883;-84
2022/06/26 05:57:29;;;;;;;1.40;1.30;;;26.40;70.80;;;;;;5014587;28;20538;-85
2022/06/26 05:59:57;;;;;;;1.33;1.23;;;26.40;70.90;;;;;;5014682;28;20493;-84
2022/06/26 06:02:24;;;;;;;1.20;1.10;;;26.40;70.90;;;;;;5014796;28;20485;-83
2022/06/26 06:04:51;;;;;;;1.20;1.10;;;26.40;70.70;;;;;;5014663;28;20435;-84
2022/06/26 06:07:20;;;;;;;1.47;1.37;;;26.40;70.80;;;;;;5015302;28;20469;-85
2022/06/26 06:09:47;;;;;;;1.20;1.10;;;26.40;70.90;;;;;;5014561;28;20510;-84
2022/06/26 06:12:16;;;;;;;1.30;1.20;;;26.40;70.80;;;;;;5014296;28;20455;-85
2022/06/26 06:14:42;;;;;;;1.47;1.37;;;26.40;70.90;;;;;;5014370;28;20439;-84
2022/06/26 06:19:54;;;;;;;1.50;1.40;;;26.40;71.70;;;;;;5014453;28;20622;-85
2022/06/26 06:22:20;;;;;;;1.60;1.50;;;26.30;70.80;;;;;;5014444;28;20446;-85
2022/06/26 06:24:47;;;;;;;1.20;1.10;;;26.40;70.90;;;;;;5014324;28;20443;-85
2022/06/26 06:27:15;;;;;;;1.27;1.17;;;26.40;70.90;;;;;;5014031;28;20467;-85
2022/06/26 06:29:42;;;;;;;1.40;1.30;;;26.30;70.70;;;;;;5014218;28;20515;-85
2022/06/26 06:32:09;;;;;;;1.40;1.30;;;26.40;70.90;;;;;;5014202;28;20447;-85
2022/06/26 06:34:36;;;;;;;1.50;1.40;;;26.40;70.90;;;;;;5014104;28;20470;-85
2022/06/26 06:37:03;;;;;;;1.33;1.23;;;26.30;70.80;;;;;;5014035;28;20942;-90
2022/06/26 06:39:30;;;;;;;1.40;1.30;;;26.30;70.80;;;;;;5013994;28;21008;-85
2022/06/26 06:41:57;;;;;;;1.20;1.10;;;26.30;70.80;;;;;;5013845;28;20823;-84
2022/06/26 06:44:25;;;;;;;1.30;1.20;;;26.30;70.80;;;;;;5014272;28;20450;-85
2022/06/26 06:46:52;;;;;;;1.40;1.30;;;26.30;70.70;;;;;;5013777;28;20551;-84
2022/06/26 06:49:19;;;;;;;1.77;1.30;;;26.40;70.90;;;;;;5013758;28;20497;-84
2022/06/26 06:51:46;;;;;;;1.40;1.30;;;26.40;70.80;;;;;;5014190;28;20526;-84
2022/06/26 06:54:13;;;;;;;1.67;1.57;;;26.30;70.70;;;;;;5013835;28;21031;-85
2022/06/26 06:56:40;;;;;;;1.30;1.20;;;26.40;70.80;;;;;;5013755;28;20470;-85
2022/06/26 06:59:07;;;;;;;1.40;1.30;;;26.40;70.80;;;;;;5013697;28;20526;-84
2022/06/26 07:01:35;;;;;;;1.70;1.60;;;26.40;70.80;;;;;;5013773;28;20507;-84
2022/06/26 07:04:02;;;;;;;1.47;1.37;;;26.40;70.80;;;;;;5013747;28;20531;-85
2022/06/26 07:06:29;;;;;;;1.30;1.20;;;26.40;70.70;;;;;;5013707;28;20435;-85
2022/06/26 07:08:56;;;;;;;1.50;1.40;;;26.40;70.70;;;;;;5013662;28;20529;-84
2022/06/26 07:11:23;;;;;;;1.10;1.00;;;26.30;70.60;;;;;;5013262;28;20546;-85
2022/06/26 07:13:50;;;;;;;1.33;1.23;;;26.30;70.60;;;;;;5013573;28;20435;-84
2022/06/26 07:16:17;;;;;;;1.70;1.60;;;26.30;70.60;;;;;;5013491;28;20490;-85
2022/06/26 07:18:45;;;;;;;1.40;1.30;;;26.40;70.60;;;;;;5013476;28;20446;-85
2022/06/26 07:21:12;;;;;;;1.50;1.40;;;26.40;70.80;;;;;;5013555;28;20586;-85
2022/06/26 07:23:40;;;;;;;1.30;1.20;;;26.40;70.70;;;;;;5013430;28;20835;-85
2022/06/26 07:26:07;;;;;;;1.30;1.20;;;26.30;70.60;;;;;;5013336;28;20911;-87
2022/06/26 07:28:34;;;;;;;1.60;1.50;;;26.30;70.50;;;;;;5013335;28;20482;-85
2022/06/26 07:31:01;;;;;;;1.43;1.33;;;26.40;70.70;;;;;;5013525;28;20874;-92
2022/06/26 07:36:13;;;;;;;1.40;1.30;;;26.30;70.50;;;;;;5013601;28;20937;-85
2022/06/26 07:38:40;;;;;;;1.73;1.63;;;26.30;70.50;;;;;;5013303;28;20530;-85
2022/06/26 07:41:07;;;;;;;1.37;1.27;;;26.30;70.50;;;;;;5014988;28;20526;-85
2022/06/26 07:43:34;;;;;;;1.67;1.57;;;26.30;70.60;;;;;;5019791;28;20864;-85
2022/06/26 07:46:01;;;;;;;1.60;1.50;;;26.30;70.50;;;;;;5016234;28;20447;-85
2022/06/26 07:48:28;;;;;;;1.47;1.37;;;26.30;70.50;;;;;;5013439;28;20443;-84
2022/06/26 07:50:55;;;;;;;1.30;1.20;;;26.30;70.50;;;;;;5013245;28;20440;-84
2022/06/26 07:53:23;;;;;;;1.63;1.53;;;26.30;70.60;;;;;;5013187;28;20452;-84
2022/06/26 07:55:50;;;;;;;1.60;1.50;;;26.30;70.50;;;;;;5017197;28;20487;-84
2022/06/26 07:58:17;;;;;;;1.60;1.40;;;26.30;70.40;;;;;;5017030;28;20475;-84
2022/06/26 08:00:44;;;;;;;1.80;1.70;;;26.30;70.40;;;;;;5017130;28;20919;-84
2022/06/26 08:03:13;;;;;;;1.60;1.50;;;26.30;70.40;;;;;;5017035;28;20542;-85
2022/06/26 08:05:41;;;;;;;1.40;1.30;;;26.30;70.40;;;;;;5016866;28;20443;-85
2022/06/26 08:08:08;;;;;;;1.53;1.43;;;26.30;70.40;;;;;;5016813;28;21018;-85
2022/06/26 08:10:37;;;;;;;1.83;1.57;;;26.30;70.30;;;;;;5016582;28;20522;-85
2022/06/26 08:13:04;;;;;;;1.70;1.60;;;26.30;70.40;;;;;;5016856;28;20493;-85
2022/06/26 08:15:31;;;;;;;1.73;1.63;;;26.30;70.40;;;;;;5016832;28;20471;-85
2022/06/26 08:17:58;;;;;;;1.87;1.77;;;26.30;70.30;;;;;;5016519;28;20523;-91
2022/06/26 08:20:25;;;;;;;2.30;2.20;;;26.30;70.20;;;;;;5016601;28;20574;-84
2022/06/26 08:22:52;;;;;;;1.70;1.60;;;26.30;70.30;;;;;;5016211;28;20450;-84
2022/06/26 08:25:19;;;;;;;2.13;2.03;;;26.30;70.20;;;;;;5016513;28;20440;-84
2022/06/26 08:27:47;;;;;;;2.30;2.20;;;26.30;70.20;;;;;;5016156;28;20554;-84
2022/06/26 08:30:14;;;;;;;2.30;2.20;;;26.30;70.10;;;;;;5016504;28;20518;-83
2022/06/26 08:32:41;;;;;;;2.40;2.30;;;26.30;70.20;;;;;;5016317;28;20436;-84
2022/06/26 08:35:10;;;;;;;2.07;1.97;;;26.30;70.20;;;;;;5016393;28;20475;-84
2022/06/26 08:37:38;;;;;;;2.20;2.10;;;26.30;70.20;;;;;;5016270;28;20436;-84
2022/06/26 08:40:07;;;;;;;2.37;2.20;;;26.30;70.20;;;;;;5016293;28;20567;-84
2022/06/26 08:42:34;;;;;;;2.60;2.50;;;26.30;70.20;;;;;;5016600;28;20463;-92
2022/06/26 08:45:02;;;;;;;2.60;2.50;;;26.30;70.20;;;;;;5016169;28;20853;-84
2022/06/26 08:47:36;;;;;;;2.50;2.40;;;26.30;70.20;;;;;;5016214;28;20439;-84
2022/06/26 08:50:04;;;;;;;2.67;2.57;;;26.30;70.20;;;;;;5015871;28;20493;-84
2022/06/26 08:52:31;;;;;;;2.50;2.40;;;26.30;70.20;;;;;;5015945;28;20443;-84
2022/06/26 08:54:58;;;;;;;2.10;2.00;;;26.30;70.20;;;;;;5015988;28;21038;-85
2022/06/26 08:57:26;;;;;;;2.00;1.90;;;26.30;70.10;;;;;;5015959;28;20482;-85
2022/06/26 08:59:52;;;;;;;2.27;2.17;;;26.30;70.10;;;;;;5016175;28;20456;-84
2022/06/26 09:02:21;;;;;;;2.70;2.50;;;26.30;70.00;;;;;;5016032;28;20530;-85
2022/06/26 09:04:47;;;;;;;2.03;1.93;;;26.30;70.00;;;;;;5015528;28;20435;-85
2022/06/26 09:07:15;;;;;;;2.13;2.03;;;26.30;70.00;;;;;;5014958;28;20538;-85
2022/06/26 09:09:41;;;;;;;1.90;1.80;;;26.30;70.00;;;;;;5015885;28;20479;-85
2022/06/26 09:12:09;;;;;;;1.73;1.63;;;26.30;69.90;;;;;;5015894;28;20463;-85
2022/06/26 09:14:36;;;;;;;1.80;1.70;;;26.30;70.00;;;;;;5015675;28;20542;-85
2022/06/26 09:17:04;;;;;;;1.73;1.63;;;26.30;69.90;;;;;;5015896;28;20532;-84
2022/06/26 09:19:36;;;;;;;1.80;1.70;;;26.30;69.90;;;;;;5015765;28;20923;-85
2022/06/26 09:22:07;;;;;;;1.80;1.70;;;26.30;69.80;;;;;;5015461;28;20487;-84
2022/06/26 09:24:36;;;;;;;1.83;1.73;;;26.30;69.80;;;;;;5015657;28;20534;-85
2022/06/26 09:27:10;;;;;;;1.60;1.50;;;26.30;69.90;;;;;;5015089;28;20467;-84
2022/06/26 09:29:40;;;;;;;1.77;1.67;;;26.30;69.90;;;;;;5014871;28;20443;-84
2022/06/26 09:32:12;;;;;;;1.60;1.50;;;26.30;69.90;;;;;;5015773;28;20451;-84
2022/06/26 09:34:44;;;;;;;1.57;1.47;;;26.30;69.90;;;;;;5015890;28;20452;-84
2022/06/26 09:37:11;;;;;;;1.50;1.40;;;26.30;69.90;;;;;;5015140;28;20450;-84
2022/06/26 09:39:38;;;;;;;1.60;1.50;;;26.30;69.90;;;;;;5015241;28;20931;-92
2022/06/26 09:42:19;;;;;;;1.40;1.30;;;26.30;69.90;;;;;;5015006;28;20581;-85
2022/06/26 09:44:47;;;;;;;1.80;1.70;;;26.30;69.90;;;;;;5015167;28;20852;-84
2022/06/26 09:47:25;;;;;;;1.60;1.50;;;26.30;69.90;;;;;;5014952;28;20439;-83
2022/06/26 09:49:57;;;;;;;1.80;1.70;;;26.30;69.90;;;;;;5014941;28;20530;-84
2022/06/26 09:52:26;;;;;;;1.50;1.40;;;26.30;69.90;;;;;;5015021;28;20534;-84
2022/06/26 09:54:54;;;;;;;1.30;1.20;;;26.30;69.90;;;;;;5014933;28;20531;-84
2022/06/26 09:57:21;;;;;;;1.80;1.60;;;26.30;69.90;;;;;;5014928;28;20522;-84
2022/06/26 09:59:48;;;;;;;1.50;1.40;;;26.30;69.90;;;;;;5014885;28;21026;-84
2022/06/26 10:07:52;;;;;;;1.93;1.83;;;26.30;69.80;;;;;;5014980;28;20439;-84
2022/06/26 10:10:21;;;;;;;1.50;1.40;;;26.30;69.90;;;;;;5014697;28;20443;-92
2022/06/26 10:12:53;;;;;;;1.70;1.60;;;26.30;69.80;;;;;;5014810;28;21017;-91
2022/06/26 10:15:21;;;;;;;1.80;1.70;;;26.30;69.80;;;;;;5015273;28;20440;-92
2022/06/26 10:18:18;;;;;;;1.73;1.63;;;26.30;69.80;;;;;;5014161;28;20539;-84
2022/06/26 10:20:48;;;;;;;2.20;2.03;;;26.30;69.70;;;;;;5014681;28;20554;-84
2022/06/26 10:23:33;;;;;;;2.03;1.93;;;26.30;69.80;;;;;;5014303;28;20803;-84
2022/06/26 10:26:11;;;;;;;1.77;1.67;;;26.30;69.70;;;;;;5014195;28;20803;-84
2022/06/26 10:28:37;;;;;;;1.90;1.80;;;26.30;69.90;;;;;;5014185;28;20507;-84
2022/06/26 10:31:07;;;;;;;1.77;1.67;;;26.30;69.90;;;;;;5014476;28;20530;-84
2022/06/26 10:33:34;;;;;;;1.43;1.33;;;26.30;69.80;;;;;;5014333;28;21018;-84
2022/06/26 10:36:03;;;;;;;2.20;2.10;;;26.30;69.80;;;;;;5014161;28;21006;-84
2022/06/26 10:38:31;;;;;;;2.00;1.90;;;26.30;69.80;;;;;;5014169;28;20440;-92
2022/06/26 10:44:02;;;;;;;1.50;1.40;;;26.30;69.70;;;;;;5014190;28;20431;-84
2022/06/26 10:46:36;;;;;;;2.00;1.90;;;26.30;69.80;;;;;;5013836;28;20447;-84
2022/06/26 10:49:07;;;;;;;1.50;1.40;;;26.30;69.70;;;;;;5013876;28;20439;-91
2022/06/26 10:51:40;;;;;;;1.50;1.40;;;26.30;69.80;;;;;;5014288;28;20522;-84
2022/06/26 10:54:19;;;;;;;1.80;1.70;;;26.30;69.70;;;;;;5014010;28;20447;-86
2022/06/26 10:56:46;;;;;;;2.10;2.00;;;26.30;69.70;;;;;;5013914;28;20451;-83
2022/06/26 10:59:18;;;;;;;1.60;1.50;;;26.30;69.70;;;;;;5013976;28;20443;-84
2022/06/26 11:01:45;;;;;;;1.60;1.50;;;26.30;69.70;;;;;;5013715;28;20495;-84
2022/06/26 11:04:12;;;;;;;2.10;2.00;;;26.30;69.80;;;;;;5013723;28;20440;-84
2022/06/26 11:06:41;;;;;;;1.83;1.70;;;26.30;69.80;;;;;;5013646;28;20436;-83
2022/06/26 11:09:09;;;;;;;1.83;1.53;;;26.30;69.70;;;;;;5013730;28;20435;-84
2022/06/26 11:11:37;;;;;;;1.70;1.60;;;26.30;69.80;;;;;;5013465;28;20962;-84
2022/06/26 11:14:08;;;;;;;1.80;1.70;;;26.30;69.70;;;;;;5013529;28;20486;-84
2022/06/26 11:16:38;;;;;;;1.40;1.30;;;26.30;69.70;;;;;;5013460;28;20829;-84
2022/06/26 11:19:06;;;;;;;1.60;1.50;;;26.30;69.70;;;;;;5013581;28;20501;-83
2022/06/26 11:21:34;;;;;;;1.40;1.30;;;26.30;69.70;;;;;;5013359;28;20518;-84
2022/06/26 11:24:03;;;;;;;1.60;1.50;;;26.30;69.60;;;;;;5013514;28;20542;-84
2022/06/26 11:26:30;;;;;;;2.50;1.90;;;26.30;69.70;;;;;;5013263;28;20531;-85
2022/06/26 11:28:58;;;;;;;1.47;1.37;;;26.30;69.80;;;;;;5012486;28;20538;-88
2022/06/26 11:31:27;;;;;;;1.43;1.33;;;26.30;69.70;;;;;;5013499;28;20530;-85
2022/06/26 11:33:54;;;;;;;1.40;1.30;;;26.30;69.80;;;;;;5013443;28;20523;-84
2022/06/26 11:36:23;;;;;;;1.27;1.17;;;26.30;69.80;;;;;;5013420;28;20467;-85
2022/06/26 11:38:54;;;;;;;1.60;1.50;;;26.30;69.80;;;;;;5013525;28;20439;-84
2022/06/26 11:41:24;;;;;;;1.53;1.43;;;26.30;69.80;;;;;;5013187;28;20491;-92
2022/06/26 11:43:56;;;;;;;1.30;1.20;;;26.30;69.80;;;;;;5013513;28;20444;-85
2022/06/26 11:46:23;;;;;;;1.23;1.13;;;26.30;69.80;;;;;;5013313;28;20442;-84
2022/06/26 11:48:52;;;;;;;1.70;1.60;;;26.30;69.80;;;;;;5013131;28;20439;-84
2022/06/26 11:51:20;;;;;;;1.47;1.37;;;26.30;69.80;;;;;;5013158;28;20450;-84
2022/06/26 11:53:50;;;;;;;1.40;1.30;;;26.30;70.60;;;;;;5013198;28;21080;-85
2022/06/26 11:56:23;;;;;;;1.50;1.40;;;26.30;69.70;;;;;;5012967;28;20950;-85
2022/06/26 11:58:51;;;;;;;1.43;1.33;;;26.30;69.70;;;;;;5013124;28;20531;-85
2022/06/26 12:01:18;;;;;;;1.53;1.43;;;26.30;69.60;;;;;;5012933;28;20479;-85
2022/06/26 12:03:53;;;;;;;1.53;1.43;;;26.30;69.60;;;;;;5013078;28;20522;-85
2022/06/26 12:06:28;;;;;;;1.40;1.30;;;26.30;69.50;;;;;;5012892;28;20452;-85
2022/06/26 12:08:56;;;;;;;1.40;1.30;;;26.30;69.60;;;;;;5013001;28;20470;-85
2022/06/26 12:11:24;;;;;;;1.30;1.20;;;26.30;69.60;;;;;;5012918;28;20467;-85
2022/06/26 12:13:52;;;;;;;1.37;1.27;;;26.30;69.50;;;;;;5013137;28;20443;-84
2022/06/26 12:16:19;;;;;;;1.63;1.53;;;26.30;69.50;;;;;;5013003;28;20444;-83
2022/06/26 12:18:48;;;;;;;1.40;1.30;;;26.30;69.50;;;;;;5012836;28;20478;-83
2022/06/26 12:21:18;;;;;;;1.17;1.07;;;26.30;69.50;;;;;;5013048;28;20554;-84
2022/06/26 12:23:46;;;;;;;1.40;1.30;;;26.30;69.50;;;;;;5012892;28;20907;-84
2022/06/26 12:26:17;;;;;;;1.23;1.13;;;26.30;69.50;;;;;;5012895;28;20443;-84
2022/06/26 12:28:49;;;;;;;1.47;1.37;;;26.30;69.40;;;;;;5012611;28;20475;-84
2022/06/26 12:31:17;;;;;;;1.20;1.10;;;26.30;69.40;;;;;;5013120;28;20530;-84
2022/06/26 12:33:44;;;;;;;1.40;1.30;;;26.30;69.40;;;;;;5013437;28;20435;-83
2022/06/26 12:36:12;;;;;;;1.50;1.27;;;26.30;69.50;;;;;;5012867;28;20531;-84
2022/06/26 12:38:39;;;;;;;1.47;1.33;;;26.30;69.50;;;;;;5012839;28;20511;-84
2022/06/26 12:41:16;;;;;;;1.23;1.13;;;26.30;69.50;;;;;;5015075;28;20530;-84
2022/06/26 12:43:44;;;;;;;1.30;1.20;;;26.30;69.50;;;;;;5016398;28;20486;-84
2022/06/26 12:46:12;;;;;;;1.20;1.10;;;26.30;69.50;;;;;;5016119;28;20486;-84
2022/06/26 12:48:39;;;;;;;1.33;1.23;;;26.30;69.50;;;;;;5016001;28;20535;-90
2022/06/26 12:51:06;;;;;;;1.30;1.20;;;26.30;69.50;;;;;;5016183;28;20475;-85
2022/06/26 12:53:33;;;;;;;1.30;1.20;;;26.30;69.50;;;;;;5015971;28;20518;-83
2022/06/26 12:56:00;;;;;;;1.23;1.13;;;26.30;69.50;;;;;;5015972;28;20440;-83
2022/06/26 12:58:27;;;;;;;1.67;1.57;;;26.30;69.50;;;;;;5015984;28;20472;-83
2022/06/26 13:00:53;;;;;;;1.13;1.03;;;26.30;69.50;;;;;;5015909;28;20475;-83
2022/06/26 13:03:22;;;;;;;1.20;1.10;;;26.30;69.40;;;;;;5015785;28;20900;-84
2022/06/26 13:05:49;;;;;;;1.20;1.10;;;26.30;69.50;;;;;;5015845;28;20439;-84
2022/06/26 13:08:17;;;;;;;1.40;1.30;;;26.30;69.40;;;;;;5015577;28;20530;-84